Time;durP1;ratioP1;P1;durP2;ratioP2;P2;SDS_P1;SDS_P2;PMS_P1;PMS_P2;Temp;Humidity;BMP_temperature;BMP_pressure;BME280_temperature;BME280_humidity;BME280_pressure;Samples;Min_cycle;Max_cycle;Signal;HPM_P1;HPM_P2
2021/03/13 00:00:53;;;;;;;10.02;3.35;;;8.80;99.90;;;;;;5022799;28;20036;-73
2021/03/13 00:03:18;;;;;;;9.00;3.10;;;8.70;99.90;;;;;;5031028;28;20048;-73
2021/03/13 00:05:46;;;;;;;9.23;2.85;;;8.90;99.90;;;;;;5023204;28;20032;-73
2021/03/13 00:08:13;;;;;;;7.70;2.65;;;8.80;99.90;;;;;;5023057;28;20021;-73
2021/03/13 00:10:40;;;;;;;8.25;2.75;;;8.80;99.90;;;;;;5021903;28;20026;-72
2021/03/13 00:13:07;;;;;;;10.52;2.53;;;8.80;99.90;;;;;;5057441;28;20045;-72
2021/03/13 00:15:34;;;;;;;12.25;2.95;;;8.80;99.90;;;;;;5029917;28;20100;-72
2021/03/13 00:18:00;;;;;;;11.90;2.70;;;8.80;99.90;;;;;;5027591;28;20077;-71
2021/03/13 00:20:28;;;;;;;10.73;2.55;;;8.70;99.90;;;;;;5026211;28;20022;-71
2021/03/13 00:22:56;;;;;;;7.38;2.47;;;8.70;99.90;;;;;;5021217;28;20041;-72
2021/03/13 00:25:23;;;;;;;14.15;2.85;;;8.70;99.90;;;;;;5026080;28;20022;-72
2021/03/13 00:27:51;;;;;;;8.55;2.38;;;8.60;99.90;;;;;;5040652;28;20508;-72
2021/03/13 00:30:20;;;;;;;8.95;2.88;;;8.70;99.90;;;;;;5025888;28;20032;-71
2021/03/13 00:32:51;;;;;;;9.98;2.65;;;8.70;99.90;;;;;;5026348;28;20351;-72
2021/03/13 00:35:17;;;;;;;7.00;2.95;;;8.70;99.90;;;;;;5030407;28;20109;-71
2021/03/13 00:37:43;;;;;;;9.93;2.90;;;8.60;99.90;;;;;;5028654;28;20052;-71
2021/03/13 00:40:13;;;;;;;14.32;4.55;;;8.70;99.90;;;;;;5031648;28;20053;-71
2021/03/13 00:42:39;;;;;;;9.25;3.45;;;8.60;99.90;;;;;;5018582;28;20117;-72
2021/03/13 00:45:06;;;;;;;16.45;4.25;;;8.60;99.90;;;;;;5027132;28;20029;-71
2021/03/13 00:47:32;;;;;;;13.15;3.90;;;8.60;99.90;;;;;;5032590;28;20078;-71
2021/03/13 00:49:58;;;;;;;10.43;3.33;;;8.60;99.90;;;;;;5032560;28;20022;-72
2021/03/13 00:52:24;;;;;;;12.43;3.13;;;8.60;99.90;;;;;;5029521;28;20494;-72
2021/03/13 00:54:49;;;;;;;12.55;4.22;;;8.70;99.90;;;;;;5034100;28;20491;-71
2021/03/13 00:57:15;;;;;;;13.00;3.90;;;8.60;99.90;;;;;;5027018;28;20025;-72
2021/03/13 00:59:41;;;;;;;10.75;4.20;;;8.60;99.90;;;;;;5031472;28;20490;-73
2021/03/13 01:02:06;;;;;;;12.77;4.00;;;8.60;99.90;;;;;;5026947;28;20029;-71
2021/03/13 01:04:32;;;;;;;14.93;4.05;;;8.60;99.90;;;;;;5022243;28;20108;-70
2021/03/13 01:06:58;;;;;;;8.27;3.22;;;8.70;99.90;;;;;;5030712;28;20126;-70
2021/03/13 01:09:23;;;;;;;9.95;2.85;;;8.60;99.90;;;;;;5020136;28;20033;-71
2021/03/13 01:11:49;;;;;;;11.90;3.28;;;8.60;99.90;;;;;;5029140;28;20033;-72
2021/03/13 01:14:15;;;;;;;9.10;3.40;;;8.60;99.90;;;;;;5031893;28;20032;-72
2021/03/13 01:16:41;;;;;;;14.50;3.70;;;8.50;99.90;;;;;;5026524;28;20040;-73
2021/03/13 01:19:06;;;;;;;14.65;3.85;;;8.50;99.90;;;;;;5017974;28;20017;-73
2021/03/13 01:21:32;;;;;;;9.45;3.20;;;8.50;99.90;;;;;;5027232;28;20371;-70
2021/03/13 01:23:58;;;;;;;12.18;4.10;;;8.50;99.90;;;;;;5019757;28;20030;-71
2021/03/13 01:26:23;;;;;;;12.05;4.13;;;8.50;99.90;;;;;;5026747;28;20045;-71
2021/03/13 01:28:49;;;;;;;12.45;4.07;;;8.50;99.90;;;;;;5028791;28;20025;-71
2021/03/13 01:31:15;;;;;;;12.95;4.10;;;8.50;99.90;;;;;;5021981;28;20355;-71
2021/03/13 01:33:40;;;;;;;11.27;4.50;;;8.50;99.90;;;;;;5022229;28;20042;-71
2021/03/13 01:36:06;;;;;;;13.82;4.68;;;8.40;99.90;;;;;;5054413;28;20382;-73
2021/03/13 01:38:32;;;;;;;12.35;4.63;;;8.40;99.90;;;;;;5020309;28;20113;-71
2021/03/13 01:40:58;;;;;;;17.35;4.82;;;8.40;99.90;;;;;;5022466;28;20465;-70
2021/03/13 01:43:24;;;;;;;14.15;4.72;;;8.40;99.90;;;;;;5027102;28;20502;-71
2021/03/13 01:45:50;;;;;;;10.23;4.03;;;8.30;99.90;;;;;;5027851;28;20029;-74
2021/03/13 01:48:17;;;;;;;13.73;4.25;;;8.40;99.90;;;;;;5026373;28;20498;-71
2021/03/13 01:50:43;;;;;;;10.32;4.68;;;8.20;99.90;;;;;;5029394;28;20018;-73
2021/03/13 01:53:09;;;;;;;13.05;4.75;;;8.30;99.90;;;;;;5030035;28;20030;-71
2021/03/13 01:55:34;;;;;;;13.32;4.53;;;8.30;99.90;;;;;;5020939;28;20075;-73
2021/03/13 01:58:00;;;;;;;12.02;4.72;;;8.30;99.90;;;;;;5032714;28;20040;-71
2021/03/13 02:00:27;;;;;;;13.20;5.10;;;8.30;99.90;;;;;;5058603;28;20052;-70
2021/03/13 02:02:52;;;;;;;11.70;4.85;;;8.30;99.90;;;;;;5030076;28;20045;-71
2021/03/13 02:05:30;;;;;;;11.30;4.28;;;8.30;99.90;;;;;;5021287;28;20022;-70
2021/03/13 02:08:04;;;;;;;10.40;4.70;;;8.40;99.90;;;;;;5026381;28;20115;-70
2021/03/13 02:11:05;;;;;;;11.10;4.10;;;8.40;99.90;;;;;;5027099;28;20030;-72
2021/03/13 02:13:51;;;;;;;14.60;3.92;;;8.20;99.90;;;;;;5027221;28;20040;-71
2021/03/13 02:16:57;;;;;;;17.33;4.43;;;8.30;99.90;;;;;;5023040;28;20034;-70
2021/03/13 02:20:00;;;;;;;9.30;3.53;;;8.30;99.90;;;;;;5024378;28;20042;-70
2021/03/13 02:22:30;;;;;;;8.85;3.75;;;8.30;99.90;;;;;;5029841;28;20025;-70
2021/03/13 02:25:25;;;;;;;13.05;3.67;;;8.30;99.90;;;;;;5023748;28;20033;-73
2021/03/13 02:28:07;;;;;;;12.18;3.90;;;8.20;99.90;;;;;;5030482;28;20570;-71
2021/03/13 02:30:34;;;;;;;16.92;5.05;;;8.30;99.90;;;;;;5030458;28;20112;-70
2021/03/13 02:33:02;;;;;;;10.88;4.15;;;8.30;99.90;;;;;;5025929;28;20481;-71
2021/03/13 02:35:35;;;;;;;18.60;5.10;;;8.30;99.90;;;;;;5053189;28;20029;-71
2021/03/13 02:38:05;;;;;;;10.57;4.47;;;8.30;99.90;;;;;;5030106;28;20032;-71
2021/03/13 02:40:32;;;;;;;13.57;5.20;;;8.30;99.90;;;;;;5019778;28;20026;-72
2021/03/13 02:43:01;;;;;;;12.55;4.82;;;8.30;99.90;;;;;;5024610;28;20079;-72
2021/03/13 02:45:29;;;;;;;14.10;5.28;;;8.40;99.90;;;;;;5031835;28;20100;-72
2021/03/13 02:47:56;;;;;;;15.57;4.22;;;8.30;99.90;;;;;;5026022;28;20116;-71
2021/03/13 02:50:22;;;;;;;11.80;4.47;;;8.30;99.90;;;;;;5017585;28;20088;-72
2021/03/13 02:52:51;;;;;;;13.95;4.90;;;8.30;99.90;;;;;;5018383;28;20395;-70
2021/03/13 02:55:18;;;;;;;14.88;4.80;;;8.30;99.90;;;;;;5033027;28;20163;-70
2021/03/13 02:57:46;;;;;;;11.35;4.30;;;8.20;99.90;;;;;;5028348;28;20034;-72
2021/03/13 03:00:15;;;;;;;8.75;4.07;;;8.20;99.90;;;;;;5022377;28;20033;-70
2021/03/13 03:02:45;;;;;;;10.90;4.00;;;8.20;99.90;;;;;;5029343;28;20045;-71
2021/03/13 03:05:11;;;;;;;10.77;4.32;;;8.20;99.90;;;;;;5033318;28;20040;-72
2021/03/13 03:07:38;;;;;;;14.75;4.40;;;8.30;99.90;;;;;;5021539;28;20049;-70
2021/03/13 03:10:09;;;;;;;11.43;5.00;;;8.30;99.90;;;;;;5025514;28;20045;-70
2021/03/13 03:12:36;;;;;;;14.30;4.80;;;8.30;99.90;;;;;;5030500;28;20028;-71
2021/03/13 03:15:04;;;;;;;17.90;5.97;;;8.40;99.90;;;;;;5032532;28;20014;-72
2021/03/13 03:17:30;;;;;;;11.52;4.43;;;8.40;99.90;;;;;;5030767;28;20034;-70
2021/03/13 03:19:58;;;;;;;15.80;4.68;;;8.40;99.90;;;;;;5024716;28;20419;-70
2021/03/13 03:22:24;;;;;;;17.85;5.20;;;8.40;99.90;;;;;;5030310;28;20030;-70
2021/03/13 03:24:50;;;;;;;13.48;5.30;;;8.30;99.90;;;;;;5029824;28;20032;-70
2021/03/13 03:27:16;;;;;;;12.35;5.22;;;8.30;99.90;;;;;;5021111;28;20032;-70
2021/03/13 03:29:42;;;;;;;11.55;5.18;;;8.30;99.90;;;;;;5026973;28;20037;-70
2021/03/13 03:32:07;;;;;;;20.13;7.10;;;8.30;99.90;;;;;;5024615;28;20079;-70
2021/03/13 03:34:33;;;;;;;13.00;6.43;;;8.40;99.90;;;;;;5062581;28;20033;-70
2021/03/13 03:36:59;;;;;;;13.65;5.70;;;8.40;99.90;;;;;;5027351;28;20053;-71
2021/03/13 03:39:25;;;;;;;17.55;5.82;;;8.40;99.90;;;;;;5028807;28;20056;-70
2021/03/13 03:41:53;;;;;;;14.13;5.72;;;8.40;99.90;;;;;;5026452;28;20029;-70
2021/03/13 03:44:24;;;;;;;13.45;5.60;;;8.40;99.90;;;;;;5027254;28;20040;-71
2021/03/13 03:46:51;;;;;;;17.20;5.95;;;8.50;99.90;;;;;;5033020;28;20025;-71
2021/03/13 03:49:20;;;;;;;21.63;6.07;;;8.40;99.90;;;;;;5026490;28;20037;-72
2021/03/13 03:51:46;;;;;;;11.70;4.90;;;8.40;99.90;;;;;;5028409;28;20037;-71
2021/03/13 03:54:13;;;;;;;11.38;5.57;;;8.40;99.90;;;;;;5032871;28;20025;-70
2021/03/13 03:56:43;;;;;;;12.88;4.30;;;8.50;99.90;;;;;;5020436;28;20474;-70
2021/03/13 03:59:17;;;;;;;10.13;4.28;;;8.40;99.90;;;;;;5030944;28;20034;-70
2021/03/13 04:01:50;;;;;;;14.30;3.72;;;8.40;99.90;;;;;;5034604;28;20485;-70
2021/03/13 04:04:21;;;;;;;9.27;3.67;;;8.40;99.90;;;;;;5032965;28;20502;-71
2021/03/13 04:06:48;;;;;;;9.98;3.60;;;8.40;99.90;;;;;;5020639;28;20033;-71
2021/03/13 04:09:17;;;;;;;14.77;3.45;;;8.40;99.90;;;;;;5028384;28;20136;-71
2021/03/13 04:11:44;;;;;;;12.48;4.03;;;8.40;99.90;;;;;;5030516;28;20030;-73
2021/03/13 04:14:10;;;;;;;9.45;3.63;;;8.40;99.90;;;;;;5031860;28;20486;-70
2021/03/13 04:16:37;;;;;;;14.95;3.83;;;8.40;99.90;;;;;;5028132;28;20033;-71
2021/03/13 04:19:04;;;;;;;9.70;4.00;;;8.40;99.90;;;;;;5035049;28;20101;-70
2021/03/13 04:21:31;;;;;;;14.02;4.00;;;8.40;99.90;;;;;;5027961;28;20072;-70
2021/03/13 04:23:57;;;;;;;10.88;3.58;;;8.50;99.90;;;;;;5026167;28;20037;-70
2021/03/13 04:26:24;;;;;;;12.57;3.78;;;8.50;99.90;;;;;;5025162;28;20025;-70
2021/03/13 04:28:50;;;;;;;7.22;3.42;;;8.50;99.90;;;;;;5026261;28;20038;-70
2021/03/13 04:31:20;;;;;;;10.57;3.10;;;8.60;99.90;;;;;;5062831;28;20026;-70
2021/03/13 04:33:48;;;;;;;7.72;3.05;;;8.50;99.90;;;;;;5030693;28;20025;-70
2021/03/13 04:36:14;;;;;;;8.40;3.50;;;8.50;99.90;;;;;;5031724;28;20478;-70
2021/03/13 04:38:40;;;;;;;11.40;2.80;;;8.60;99.90;;;;;;5034839;28;20060;-71
2021/03/13 04:41:08;;;;;;;9.20;3.75;;;8.50;99.90;;;;;;5028121;28;20140;-72
2021/03/13 04:43:35;;;;;;;7.22;2.70;;;8.50;99.90;;;;;;5029440;28;20034;-70
2021/03/13 04:46:01;;;;;;;11.45;2.78;;;8.60;99.90;;;;;;5061584;28;20658;-70
2021/03/13 04:48:30;;;;;;;6.32;3.22;;;8.50;99.90;;;;;;5033402;28;20037;-70
2021/03/13 04:51:00;;;;;;;11.75;2.75;;;8.60;99.90;;;;;;5029381;28;20029;-70
2021/03/13 04:53:26;;;;;;;11.88;2.67;;;8.60;99.90;;;;;;5023734;28;20033;-70
2021/03/13 04:55:52;;;;;;;10.32;2.40;;;8.50;99.90;;;;;;5023999;28;20089;-71
2021/03/13 04:58:18;;;;;;;7.63;3.00;;;8.60;99.90;;;;;;5031636;28;20044;-73
2021/03/13 05:00:45;;;;;;;7.72;2.85;;;8.50;99.90;;;;;;5032917;28;20454;-72
2021/03/13 05:03:11;;;;;;;6.05;2.53;;;8.60;99.90;;;;;;5031859;28;20140;-73
2021/03/13 05:05:36;;;;;;;9.13;2.90;;;8.60;99.90;;;;;;5023253;28;20114;-71
2021/03/13 05:08:02;;;;;;;7.88;2.70;;;8.60;99.90;;;;;;5020466;28;20029;-71
2021/03/13 05:10:28;;;;;;;5.88;2.00;;;8.70;99.90;;;;;;5027779;28;20036;-71
2021/03/13 05:12:54;;;;;;;11.18;2.55;;;8.60;99.90;;;;;;5024596;28;20034;-71
2021/03/13 05:15:20;;;;;;;8.68;2.50;;;8.60;99.90;;;;;;5020279;28;20092;-70
2021/03/13 05:17:46;;;;;;;12.10;2.60;;;8.70;99.90;;;;;;5029726;28;20037;-72
2021/03/13 05:20:12;;;;;;;12.85;3.10;;;8.60;99.90;;;;;;5024917;28;20029;-71
2021/03/13 05:22:38;;;;;;;10.57;2.90;;;8.70;99.90;;;;;;5024182;28;20028;-70
2021/03/13 05:25:05;;;;;;;11.70;3.17;;;8.70;99.90;;;;;;5028896;28;20025;-71
2021/03/13 05:27:31;;;;;;;9.55;2.13;;;8.70;99.90;;;;;;5033158;28;20029;-72
2021/03/13 05:29:57;;;;;;;10.77;2.25;;;8.70;99.90;;;;;;5023930;28;20029;-71
2021/03/13 05:32:23;;;;;;;10.32;2.60;;;8.70;99.90;;;;;;5026063;28;20032;-70
2021/03/13 05:34:49;;;;;;;10.35;2.65;;;8.70;99.90;;;;;;5030714;28;20052;-70
2021/03/13 05:37:15;;;;;;;10.98;2.20;;;8.70;99.90;;;;;;5029187;28;20211;-70
2021/03/13 05:39:41;;;;;;;12.95;2.50;;;8.70;99.90;;;;;;5029853;28;20033;-71
2021/03/13 05:42:09;;;;;;;11.23;2.70;;;8.70;99.90;;;;;;5033014;28;20417;-71
2021/03/13 05:44:35;;;;;;;8.90;2.70;;;8.70;99.90;;;;;;5027343;28;20038;-70
2021/03/13 05:47:02;;;;;;;10.63;3.03;;;8.70;99.90;;;;;;5029070;28;20017;-71
2021/03/13 05:49:31;;;;;;;9.75;2.20;;;8.70;99.90;;;;;;5032603;28;20036;-73
2021/03/13 05:51:58;;;;;;;8.55;2.70;;;8.70;99.90;;;;;;5031275;28;20079;-71
2021/03/13 05:54:24;;;;;;;10.07;3.00;;;8.80;99.90;;;;;;5037356;28;20030;-72
2021/03/13 05:56:50;;;;;;;8.88;2.50;;;8.80;99.90;;;;;;5031183;28;20024;-71
2021/03/13 05:59:16;;;;;;;9.00;2.40;;;8.80;99.90;;;;;;5028365;28;20042;-71
2021/03/13 06:01:43;;;;;;;6.07;1.58;;;8.80;99.90;;;;;;5033137;28;20096;-72
2021/03/13 06:04:08;;;;;;;10.63;2.17;;;8.80;99.90;;;;;;5029761;28;20052;-71
2021/03/13 06:06:37;;;;;;;12.18;3.05;;;8.80;99.90;;;;;;5029527;28;20433;-72
2021/03/13 06:09:04;;;;;;;8.27;1.98;;;8.80;99.90;;;;;;5030455;28;20068;-72
2021/03/13 06:11:29;;;;;;;7.03;1.92;;;8.80;99.90;;;;;;5028995;28;20020;-71
2021/03/13 06:13:55;;;;;;;10.38;1.70;;;8.90;99.90;;;;;;5026198;28;20033;-71
2021/03/13 06:16:22;;;;;;;13.73;2.28;;;8.80;99.90;;;;;;5025232;28;20036;-72
2021/03/13 06:18:48;;;;;;;4.95;1.55;;;8.80;99.90;;;;;;5029231;28;20105;-73
2021/03/13 06:21:35;;;;;;;8.98;2.35;;;8.70;99.90;;;;;;5031635;28;20124;-73
2021/03/13 06:24:31;;;;;;;4.65;2.33;;;8.60;99.90;;;;;;5027671;28;20145;-73
2021/03/13 06:27:01;;;;;;;6.43;1.60;;;8.70;99.90;;;;;;5032081;28;20017;-72
2021/03/13 06:29:29;;;;;;;4.72;1.40;;;8.60;99.90;;;;;;5028065;28;20065;-70
2021/03/13 06:32:12;;;;;;;1.27;0.45;;;8.50;99.90;;;;;;5027778;28;20359;-71
2021/03/13 06:34:39;;;;;;;3.13;1.20;;;8.30;99.90;;;;;;5026725;28;20091;-73
2021/03/13 06:37:26;;;;;;;2.08;0.63;;;8.40;99.90;;;;;;5029623;28;20139;-72
2021/03/13 06:39:53;;;;;;;1.55;0.47;;;8.20;99.90;;;;;;5028524;28;20515;-72
2021/03/13 06:42:25;;;;;;;2.17;0.55;;;8.20;99.90;;;;;;5032416;28;20017;-72
2021/03/13 06:45:05;;;;;;;2.08;0.60;;;8.30;99.90;;;;;;5030456;28;20038;-72
2021/03/13 06:47:33;;;;;;;1.98;0.80;;;8.20;99.90;;;;;;5026684;28;20022;-72
2021/03/13 06:50:12;;;;;;;2.80;0.80;;;8.20;99.90;;;;;;5032639;28;20030;-71
2021/03/13 06:52:44;;;;;;;5.30;0.95;;;8.30;99.90;;;;;;5024811;28;20392;-72
2021/03/13 06:55:24;;;;;;;3.15;0.60;;;8.20;99.90;;;;;;5031290;28;20022;-72
2021/03/13 06:57:51;;;;;;;3.63;0.98;;;8.40;99.90;;;;;;5027998;28;20025;-72
2021/03/13 07:00:34;;;;;;;3.22;0.80;;;8.30;99.90;;;;;;5030947;28;20508;-71
2021/03/13 07:03:14;;;;;;;4.53;0.90;;;8.30;99.90;;;;;;5030958;28;20533;-72
2021/03/13 07:05:42;;;;;;;1.80;0.90;;;8.30;99.90;;;;;;5027029;28;20528;-73
2021/03/13 07:08:28;;;;;;;3.95;0.90;;;8.40;99.90;;;;;;5025559;28;20056;-72
2021/03/13 07:11:03;;;;;;;3.53;0.85;;;8.30;99.90;;;;;;5027587;28;21239;-72
2021/03/13 07:13:35;;;;;;;2.65;0.85;;;8.30;99.90;;;;;;5028857;28;20030;-73
2021/03/13 07:16:20;;;;;;;;;;;8.40;99.90;;;;;;5027249;28;20156;-72
2021/03/13 07:18:46;;;;;;;5.43;0.95;;;8.30;99.90;;;;;;5020623;28;19910;-72
2021/03/13 07:21:13;;;;;;;4.25;0.90;;;8.30;99.90;;;;;;5030087;28;20033;-71
2021/03/13 07:23:42;;;;;;;6.38;0.88;;;8.30;99.90;;;;;;5028826;28;20042;-72
2021/03/13 07:26:10;;;;;;;9.32;1.48;;;8.30;99.90;;;;;;5030659;28;20440;-72
2021/03/13 07:28:42;;;;;;;5.40;1.00;;;8.30;99.90;;;;;;5025814;28;20409;-72
2021/03/13 07:31:11;;;;;;;5.32;0.90;;;8.30;99.90;;;;;;5024908;28;20504;-72
2021/03/13 07:33:40;;;;;;;3.20;1.05;;;8.30;99.90;;;;;;5025503;28;20025;-72
2021/03/13 07:36:13;;;;;;;6.82;2.15;;;8.30;99.90;;;;;;5027135;28;20053;-71
2021/03/13 07:38:41;;;;;;;5.80;1.08;;;8.40;99.90;;;;;;5032877;28;20043;-72
2021/03/13 07:41:11;;;;;;;2.80;0.90;;;8.30;99.90;;;;;;5030329;28;20068;-72
2021/03/13 07:43:39;;;;;;;5.03;1.42;;;8.30;99.90;;;;;;5028203;28;20033;-72
2021/03/13 07:46:08;;;;;;;4.68;1.20;;;8.30;99.90;;;;;;5030457;28;20025;-71
2021/03/13 07:48:36;;;;;;;6.90;1.50;;;8.30;99.90;;;;;;5027164;28;20025;-72
2021/03/13 07:51:02;;;;;;;6.72;1.55;;;8.40;99.90;;;;;;5028502;28;20386;-72
2021/03/13 07:53:29;;;;;;;6.45;1.70;;;8.30;99.90;;;;;;5029492;28;20386;-71
2021/03/13 07:55:55;;;;;;;6.75;1.55;;;8.30;99.90;;;;;;5030441;28;20554;-72
2021/03/13 07:58:22;;;;;;;7.35;1.45;;;8.40;99.90;;;;;;5028746;28;20120;-71
2021/03/13 08:00:48;;;;;;;8.85;1.40;;;8.40;99.90;;;;;;5029822;28;20053;-72
2021/03/13 08:03:26;;;;;;;12.70;2.05;;;8.50;99.90;;;;;;5031577;28;20044;-71
2021/03/13 08:05:57;;;;;;;10.23;1.50;;;8.40;99.90;;;;;;5032791;28;20057;-71
2021/03/13 08:08:46;;;;;;;6.93;1.50;;;8.40;99.90;;;;;;5060027;28;20390;-72
2021/03/13 08:11:19;;;;;;;10.60;2.13;;;8.50;99.90;;;;;;5038745;28;20063;-71
2021/03/13 08:13:50;;;;;;;8.63;1.60;;;8.50;99.90;;;;;;5034747;28;20108;-72
2021/03/13 08:16:29;;;;;;;9.52;2.15;;;8.60;99.90;;;;;;5029992;28;20057;-72
2021/03/13 08:18:57;;;;;;;8.85;1.77;;;8.60;99.90;;;;;;5027698;28;20045;-73
2021/03/13 08:21:23;;;;;;;9.65;2.08;;;8.60;99.90;;;;;;5034294;28;20350;-71
2021/03/13 08:24:00;;;;;;;11.15;1.85;;;8.70;99.90;;;;;;5029191;28;20051;-71
2021/03/13 08:26:34;;;;;;;13.73;1.88;;;8.80;99.90;;;;;;5029882;28;20033;-71
2021/03/13 08:29:05;;;;;;;15.40;2.28;;;8.70;99.90;;;;;;5032009;28;20500;-71
2021/03/13 08:31:34;;;;;;;10.23;1.65;;;8.70;99.90;;;;;;5030407;28;20034;-71
2021/03/13 08:34:09;;;;;;;14.20;2.40;;;8.80;99.90;;;;;;5028746;28;20017;-72
2021/03/13 08:36:46;;;;;;;9.68;1.73;;;8.70;99.90;;;;;;5031531;28;20035;-71
2021/03/13 08:39:14;;;;;;;10.82;2.20;;;8.80;99.90;;;;;;5031044;28;20029;-71
2021/03/13 08:41:45;;;;;;;9.50;1.85;;;8.80;99.90;;;;;;5030554;28;20033;-71
2021/03/13 08:44:29;;;;;;;17.70;2.80;;;8.80;99.90;;;;;;5049463;28;20393;-72
2021/03/13 08:47:12;;;;;;;14.13;1.80;;;8.80;99.90;;;;;;5027859;28;20026;-71
2021/03/13 08:49:48;;;;;;;16.67;1.80;;;8.60;99.90;;;;;;5027773;28;20026;-73
2021/03/13 08:52:15;;;;;;;7.22;1.88;;;8.60;99.90;;;;;;5031945;28;20022;-72
2021/03/13 08:54:41;;;;;;;7.32;1.55;;;8.70;99.90;;;;;;5027514;28;20030;-72
2021/03/13 08:57:30;;;;;;;7.38;1.60;;;8.70;99.90;;;;;;5024189;28;20482;-71
2021/03/13 08:59:56;;;;;;;5.22;1.38;;;8.80;99.90;;;;;;5020885;28;20055;-72
2021/03/13 09:02:28;;;;;;;8.95;1.83;;;8.90;99.90;;;;;;5026882;28;20390;-72
2021/03/13 09:05:00;;;;;;;10.63;1.65;;;9.00;99.90;;;;;;5022249;28;20030;-71
2021/03/13 09:07:26;;;;;;;16.70;2.25;;;9.00;99.90;;;;;;5030789;28;20040;-72
2021/03/13 09:09:56;;;;;;;8.07;2.05;;;9.00;99.90;;;;;;5031010;28;20026;-72
2021/03/13 09:12:22;;;;;;;8.30;1.58;;;9.10;99.90;;;;;;5029791;28;20017;-71
2021/03/13 09:14:52;;;;;;;13.02;2.42;;;9.10;99.90;;;;;;5035054;28;20482;-72
2021/03/13 09:17:22;;;;;;;12.80;2.53;;;9.10;99.90;;;;;;5022674;28;20029;-71
2021/03/13 09:19:50;;;;;;;17.52;2.58;;;9.20;99.90;;;;;;5060291;28;20486;-72
2021/03/13 09:22:27;;;;;;;10.27;2.17;;;9.20;99.90;;;;;;5029912;28;20018;-72
2021/03/13 09:25:01;;;;;;;11.27;2.95;;;9.30;99.90;;;;;;5028004;28;20037;-71
2021/03/13 09:27:32;;;;;;;17.40;3.55;;;9.40;99.90;;;;;;5015868;28;20025;-71
2021/03/13 09:29:59;;;;;;;14.05;2.67;;;9.50;99.90;;;;;;5021055;28;20039;-71
2021/03/13 09:32:27;;;;;;;11.27;3.10;;;9.60;99.90;;;;;;5027232;28;20426;-72
2021/03/13 09:34:55;;;;;;;12.27;3.22;;;9.50;99.90;;;;;;5022661;28;20378;-71
2021/03/13 09:37:26;;;;;;;11.88;2.65;;;9.50;99.90;;;;;;5026147;28;20018;-72
2021/03/13 09:39:54;;;;;;;11.50;3.25;;;9.50;99.90;;;;;;5028781;28;20036;-71
2021/03/13 09:42:24;;;;;;;16.77;3.58;;;9.60;99.90;;;;;;5026673;28;20079;-72
2021/03/13 09:44:56;;;;;;;11.90;2.85;;;9.50;99.90;;;;;;5019070;28;20038;-71
2021/03/13 09:47:50;;;;;;;16.48;2.80;;;9.40;99.90;;;;;;5021677;28;20025;-71
2021/03/13 09:50:24;;;;;;;14.27;3.00;;;9.40;99.90;;;;;;5022002;28;20040;-71
2021/03/13 09:52:51;;;;;;;15.32;3.58;;;9.50;99.90;;;;;;5027592;28;20486;-71
2021/03/13 09:55:27;;;;;;;20.55;3.58;;;9.50;99.90;;;;;;5029697;28;20022;-71
2021/03/13 09:57:54;;;;;;;21.98;3.38;;;9.40;99.90;;;;;;5028485;28;20402;-72
2021/03/13 10:00:26;;;;;;;15.73;2.83;;;9.40;99.90;;;;;;5028510;28;20107;-71
2021/03/13 10:02:54;;;;;;;20.65;2.83;;;9.40;99.90;;;;;;5027297;28;20026;-70
2021/03/13 10:05:22;;;;;;;15.23;2.95;;;9.30;99.90;;;;;;5029771;28;20136;-71
2021/03/13 10:07:50;;;;;;;18.55;3.92;;;9.50;99.90;;;;;;5060800;28;20397;-72
2021/03/13 10:10:18;;;;;;;24.25;3.80;;;9.70;99.90;;;;;;5020225;28;20026;-72
2021/03/13 10:12:53;;;;;;;15.30;2.88;;;9.60;99.90;;;;;;5021230;28;20018;-72
2021/03/13 10:15:20;;;;;;;15.82;2.72;;;9.50;99.90;;;;;;5021820;28;20032;-72
2021/03/13 10:18:00;;;;;;;14.25;2.72;;;9.30;99.90;;;;;;5024234;28;20548;-71
2021/03/13 10:20:27;;;;;;;16.20;2.97;;;9.20;99.90;;;;;;5023176;28;20037;-72
2021/03/13 10:22:54;;;;;;;18.15;3.15;;;9.00;99.90;;;;;;5025174;28;20530;-72
2021/03/13 10:25:20;;;;;;;16.15;3.85;;;9.10;99.90;;;;;;5027092;28;20109;-72
2021/03/13 10:27:46;;;;;;;12.30;2.58;;;9.10;99.90;;;;;;5022704;28;20053;-72
2021/03/13 10:30:12;;;;;;;21.02;3.72;;;9.20;99.90;;;;;;5028652;28;20065;-72
2021/03/13 10:32:39;;;;;;;22.50;3.70;;;9.30;99.90;;;;;;5024355;28;20014;-73
2021/03/13 10:35:10;;;;;;;21.20;3.88;;;9.40;99.90;;;;;;5022998;28;20418;-70
2021/03/13 10:37:44;;;;;;;13.95;3.28;;;9.70;99.90;;;;;;5031847;28;20043;-72
2021/03/13 10:40:27;;;;;;;17.98;3.10;;;9.80;99.90;;;;;;5028501;28;20076;-71
2021/03/13 10:42:53;;;;;;;;;;;10.00;99.90;;;;;;5027263;28;20029;-72
2021/03/13 10:45:19;;;;;;;17.55;2.95;;;10.00;99.90;;;;;;5032672;28;19954;-72
2021/03/13 10:47:46;;;;;;;12.35;3.05;;;10.00;99.90;;;;;;5029199;28;20028;-71
2021/03/13 10:50:13;;;;;;;17.00;3.13;;;10.20;99.90;;;;;;5031439;28;20033;-72
2021/03/13 10:52:41;;;;;;;15.07;3.33;;;10.10;99.90;;;;;;5024714;28;20017;-72
2021/03/13 10:55:07;;;;;;;14.38;2.78;;;10.10;99.90;;;;;;5028060;28;20022;-72
2021/03/13 10:57:34;;;;;;;17.35;3.40;;;10.00;99.90;;;;;;5028098;28;20034;-73
2021/03/13 11:00:00;;;;;;;14.82;3.30;;;10.10;99.90;;;;;;5020947;28;20017;-72
2021/03/13 11:02:26;;;;;;;15.48;2.60;;;10.30;99.90;;;;;;5050179;28;20030;-72
2021/03/13 11:04:51;;;;;;;12.85;2.75;;;10.60;99.90;;;;;;5025111;28;20496;-72
2021/03/13 11:07:17;;;;;;;14.07;3.95;;;10.60;99.90;;;;;;5027431;28;20042;-71
2021/03/13 11:09:47;;;;;;;13.85;2.63;;;10.70;99.90;;;;;;5028150;28;20034;-72
2021/03/13 11:12:14;;;;;;;17.02;2.97;;;10.70;99.90;;;;;;5027203;28;20418;-72
2021/03/13 11:14:39;;;;;;;18.85;3.83;;;10.60;99.90;;;;;;5024609;28;20104;-72
2021/03/13 11:17:05;;;;;;;15.30;2.80;;;10.70;99.90;;;;;;5026728;28;20120;-71
2021/03/13 11:19:31;;;;;;;13.52;3.30;;;10.70;99.90;;;;;;5014814;28;20036;-72
2021/03/13 11:21:58;;;;;;;15.65;2.58;;;10.80;99.90;;;;;;5021649;28;20074;-72
2021/03/13 11:24:24;;;;;;;16.63;2.72;;;10.90;99.90;;;;;;5019946;28;21564;-72
2021/03/13 11:26:49;;;;;;;13.85;2.80;;;11.00;99.90;;;;;;5056587;28;20061;-72
2021/03/13 11:29:17;;;;;;;17.77;2.75;;;10.80;99.90;;;;;;5027594;28;20033;-72
2021/03/13 11:31:44;;;;;;;13.98;2.38;;;10.60;99.90;;;;;;5026156;28;20526;-72
2021/03/13 11:34:10;;;;;;;16.23;2.95;;;10.50;99.90;;;;;;5037458;28;20112;-72
2021/03/13 11:36:35;;;;;;;12.75;2.42;;;10.40;99.90;;;;;;5031895;28;20155;-72
2021/03/13 11:39:01;;;;;;;11.32;2.40;;;10.30;99.90;;;;;;5028949;28;20116;-72
2021/03/13 11:41:27;;;;;;;13.98;2.83;;;10.30;99.90;;;;;;5033990;28;20017;-71
2021/03/13 11:43:52;;;;;;;17.50;3.22;;;10.40;99.90;;;;;;5032753;28;20435;-72
2021/03/13 11:46:19;;;;;;;14.32;3.17;;;10.30;99.90;;;;;;5059640;28;20026;-71
2021/03/13 11:48:45;;;;;;;9.98;2.53;;;10.50;99.90;;;;;;5028561;28;20052;-71
2021/03/13 11:51:11;;;;;;;12.63;4.15;;;10.70;99.90;;;;;;5031545;28;20018;-71
2021/03/13 11:53:37;;;;;;;10.00;2.15;;;10.90;99.90;;;;;;5030799;28;20025;-71
2021/03/13 11:56:03;;;;;;;18.77;3.10;;;10.80;99.90;;;;;;5028198;28;20021;-71
2021/03/13 11:58:29;;;;;;;12.20;3.25;;;10.60;99.90;;;;;;5030943;28;20493;-71
2021/03/13 12:00:56;;;;;;;17.35;3.08;;;10.40;99.90;;;;;;5029889;28;20041;-71
2021/03/13 12:03:22;;;;;;;13.00;2.75;;;10.30;99.90;;;;;;5029235;28;20037;-71
2021/03/13 12:05:47;;;;;;;16.17;3.35;;;10.20;99.90;;;;;;5020618;28;20036;-71
2021/03/13 12:08:13;;;;;;;15.63;3.25;;;10.00;99.90;;;;;;5024381;28;21035;-72
2021/03/13 12:10:39;;;;;;;16.65;3.97;;;10.00;99.90;;;;;;5024588;28;20378;-72
2021/03/13 12:13:05;;;;;;;16.70;3.50;;;10.00;99.90;;;;;;5019877;28;20025;-71
2021/03/13 12:15:31;;;;;;;19.27;4.63;;;10.40;99.90;;;;;;5026962;28;20148;-72
2021/03/13 12:17:57;;;;;;;19.85;3.78;;;10.60;99.90;;;;;;5031200;28;20025;-72
2021/03/13 12:20:23;;;;;;;15.90;2.97;;;10.50;99.90;;;;;;5029615;28;20474;-72
2021/03/13 12:22:50;;;;;;;18.75;3.42;;;10.50;99.90;;;;;;5052536;28;20091;-72
2021/03/13 12:25:16;;;;;;;11.65;2.72;;;10.30;99.90;;;;;;5029379;28;20030;-72
2021/03/13 12:27:41;;;;;;;14.02;3.20;;;10.20;99.90;;;;;;5032588;28;20030;-73
2021/03/13 12:30:11;;;;;;;10.77;1.85;;;10.10;99.90;;;;;;5020537;28;20025;-72
2021/03/13 12:32:38;;;;;;;9.45;2.50;;;9.90;99.90;;;;;;5024544;28;20021;-72
2021/03/13 12:35:07;;;;;;;8.82;1.75;;;9.70;99.90;;;;;;5034518;28;20098;-71
2021/03/13 12:37:33;;;;;;;13.82;2.70;;;9.20;99.90;;;;;;5031532;28;20025;-71
2021/03/13 12:39:59;;;;;;;12.80;2.80;;;9.00;99.90;;;;;;5027022;28;20518;-70
2021/03/13 12:42:25;;;;;;;10.70;2.33;;;8.40;99.90;;;;;;5030832;28;20055;-70
2021/03/13 12:44:52;;;;;;;14.40;2.50;;;8.20;99.90;;;;;;5026825;28;20482;-70
2021/03/13 12:47:18;;;;;;;10.73;2.65;;;8.20;99.90;;;;;;5026125;28;20083;-70
2021/03/13 12:49:43;;;;;;;12.70;2.72;;;8.40;99.90;;;;;;5026149;28;20022;-71
2021/03/13 12:52:09;;;;;;;10.65;2.80;;;8.50;99.90;;;;;;5026392;28;20044;-69
2021/03/13 12:54:35;;;;;;;13.15;2.88;;;8.70;99.90;;;;;;5031423;28;20025;-72
2021/03/13 12:57:01;;;;;;;14.38;2.92;;;9.10;99.90;;;;;;5026910;28;20052;-72
2021/03/13 12:59:27;;;;;;;16.73;3.20;;;9.20;99.90;;;;;;5031162;28;20503;-72